createdAt,value
2022-12-24T00:00:22.217Z,17.56
2022-12-24T00:00:52.214Z,17.57
2022-12-24T00:01:22.089Z,17.56
2022-12-24T00:01:52.015Z,17.56
2022-12-24T00:02:22.161Z,17.54
2022-12-24T00:02:51.984Z,17.57
2022-12-24T00:03:22.009Z,17.51
2022-12-24T00:03:51.974Z,17.59
2022-12-24T00:04:21.800Z,17.59
2022-12-24T00:04:55.672Z,17.51
2022-12-24T00:05:22.684Z,17.63
2022-12-24T00:05:51.673Z,17.49
2022-12-24T00:06:21.615Z,17.60
2022-12-24T00:06:51.555Z,17.52
2022-12-24T00:07:21.541Z,17.59
2022-12-24T00:07:51.474Z,17.46
2022-12-24T00:08:21.472Z,17.54
2022-12-24T00:08:51.430Z,17.54
2022-12-24T00:09:21.364Z,17.49
2022-12-24T00:09:51.318Z,17.49
2022-12-24T00:10:21.291Z,17.52
2022-12-24T00:10:51.230Z,17.49
2022-12-24T00:11:21.205Z,17.59
2022-12-24T00:11:51.164Z,17.49
2022-12-24T00:12:21.141Z,17.52
2022-12-24T00:12:51.065Z,17.54
2022-12-24T00:13:21.090Z,17.52
2022-12-24T00:13:51.009Z,17.46
2022-12-24T00:14:20.943Z,17.51
2022-12-24T00:14:50.899Z,17.52
2022-12-24T00:15:20.853Z,17.52
2022-12-24T00:15:50.825Z,17.49
2022-12-24T00:16:20.819Z,17.46
2022-12-24T00:16:50.853Z,17.51
2022-12-24T00:17:20.689Z,17.48
2022-12-24T00:17:50.640Z,17.46
2022-12-24T00:18:20.610Z,17.51
2022-12-24T00:18:50.572Z,17.46
2022-12-24T00:19:20.549Z,17.45
2022-12-24T00:19:50.515Z,17.51
2022-12-24T00:20:20.465Z,17.54
2022-12-24T00:20:50.390Z,17.59
2022-12-24T00:21:20.353Z,17.63
2022-12-24T00:21:50.304Z,17.57
2022-12-24T00:22:20.273Z,17.63
2022-12-24T00:22:50.222Z,17.59
2022-12-24T00:23:20.199Z,17.64
2022-12-24T00:23:50.161Z,17.57
2022-12-24T00:24:20.110Z,17.64
2022-12-24T00:24:50.268Z,17.54
2022-12-24T00:25:20.689Z,17.57
2022-12-24T00:25:49.981Z,17.56
2022-12-24T00:26:20.100Z,17.57
2022-12-24T00:26:49.879Z,17.59
2022-12-24T00:27:19.867Z,17.56
2022-12-24T00:27:49.799Z,17.52
2022-12-24T00:28:19.784Z,17.57
2022-12-24T00:28:49.726Z,17.60
2022-12-24T00:29:19.676Z,17.54
2022-12-24T00:29:49.644Z,17.65
2022-12-24T00:30:19.588Z,17.52
2022-12-24T00:30:49.614Z,17.60
2022-12-24T00:31:19.639Z,17.56
2022-12-24T00:31:49.521Z,17.59
2022-12-24T00:32:19.473Z,17.54
2022-12-24T00:32:49.420Z,17.52
2022-12-24T00:33:24.308Z,17.56
2022-12-24T00:33:50.358Z,17.64
2022-12-24T00:34:19.287Z,17.76
2022-12-24T00:34:49.254Z,17.85
2022-12-24T00:35:19.285Z,17.94
2022-12-24T00:35:49.165Z,17.95
2022-12-24T00:36:19.116Z,18.04
2022-12-24T00:36:49.087Z,18.13
2022-12-24T00:37:19.039Z,18.26
2022-12-24T00:37:48.997Z,18.35
2022-12-24T00:38:18.966Z,18.35
2022-12-24T00:38:48.914Z,18.33
2022-12-24T00:39:18.860Z,18.28
2022-12-24T00:39:48.826Z,18.23
2022-12-24T00:40:18.816Z,18.15
2022-12-24T00:40:48.735Z,18.05
2022-12-24T00:41:18.684Z,18.05
2022-12-24T00:41:48.641Z,17.97
2022-12-24T00:42:18.603Z,18.05
2022-12-24T00:42:48.552Z,17.98
2022-12-24T00:43:18.512Z,17.98
2022-12-24T00:43:57.153Z,17.98
2022-12-24T00:44:18.400Z,18.01
2022-12-24T00:44:48.410Z,17.95
2022-12-24T00:45:18.319Z,17.95
2022-12-24T00:45:48.336Z,17.92
2022-12-24T00:46:18.261Z,17.94
2022-12-24T00:46:48.219Z,17.95
2022-12-24T00:47:18.137Z,17.97
2022-12-24T00:47:48.103Z,17.85
2022-12-24T00:48:18.048Z,17.89
2022-12-24T00:48:48.022Z,17.83
2022-12-24T00:49:17.950Z,17.90
2022-12-24T00:49:47.917Z,17.87
2022-12-24T00:50:17.849Z,17.90
2022-12-24T00:50:47.898Z,17.83
2022-12-24T00:51:17.821Z,17.80
2022-12-24T00:51:47.757Z,17.70
2022-12-24T00:52:17.668Z,17.74
2022-12-24T00:52:47.638Z,17.80
2022-12-24T00:53:17.581Z,17.80
2022-12-24T00:53:47.545Z,17.72
2022-12-24T00:54:17.504Z,17.74
2022-12-24T00:54:47.468Z,17.76
2022-12-24T00:55:17.401Z,17.78
2022-12-24T00:55:47.356Z,17.71
2022-12-24T00:56:17.296Z,17.78
2022-12-24T00:56:47.262Z,17.76
2022-12-24T00:57:17.209Z,17.71
2022-12-24T00:57:47.152Z,17.70
2022-12-24T00:58:17.102Z,17.65
2022-12-24T00:58:47.081Z,17.65
2022-12-24T00:59:17.026Z,17.70
2022-12-24T00:59:46.984Z,17.63
2022-12-24T01:00:16.930Z,17.63
2022-12-24T01:00:46.897Z,17.60
2022-12-24T01:03:18.698Z,17.63
2022-12-24T01:03:48.741Z,17.56
2022-12-24T01:04:18.628Z,17.63
2022-12-24T01:04:48.623Z,17.59
2022-12-24T01:05:18.629Z,17.48
2022-12-24T01:05:48.636Z,17.63
2022-12-24T01:06:28.133Z,17.60
2022-12-24T01:06:48.664Z,17.67
2022-12-24T01:07:18.658Z,17.56
2022-12-24T01:07:48.657Z,17.54
2022-12-24T01:08:18.696Z,17.54
2022-12-24T01:08:48.684Z,17.48
2022-12-24T01:09:18.720Z,17.52
2022-12-24T01:09:48.694Z,17.54
2022-12-24T01:10:18.706Z,17.57
2022-12-24T01:10:48.708Z,17.51
2022-12-24T01:11:18.729Z,17.49
2022-12-24T01:11:48.731Z,17.54
2022-12-24T01:12:18.775Z,17.54
2022-12-24T01:12:48.746Z,17.49
2022-12-24T01:13:18.786Z,17.45
2022-12-24T01:13:48.763Z,17.46
2022-12-24T01:14:18.776Z,17.45
2022-12-24T01:14:48.780Z,17.44
2022-12-24T01:15:18.793Z,17.38
2022-12-24T01:15:48.862Z,17.59
2022-12-24T01:16:18.951Z,17.45
2022-12-24T01:16:48.807Z,17.41
2022-12-24T01:17:18.829Z,17.49
2022-12-24T01:17:48.832Z,17.41
2022-12-24T01:18:18.839Z,17.44
2022-12-24T01:18:48.869Z,17.45
2022-12-24T01:19:18.867Z,17.42
2022-12-24T01:19:48.850Z,17.44
2022-12-24T01:20:18.883Z,17.38
2022-12-24T01:20:48.880Z,17.34
2022-12-24T01:21:18.893Z,17.49
2022-12-24T01:21:48.908Z,17.45
2022-12-24T01:22:18.892Z,17.33
2022-12-24T01:22:48.907Z,17.38
2022-12-24T01:23:18.898Z,17.45
2022-12-24T01:23:48.908Z,17.39
2022-12-24T01:24:18.912Z,17.41
2022-12-24T01:24:48.918Z,17.39
2022-12-24T01:25:18.962Z,17.44
2022-12-24T01:25:48.923Z,17.42
2022-12-24T01:26:18.942Z,17.56
2022-12-24T01:26:48.933Z,17.56
2022-12-24T01:27:18.953Z,17.48
2022-12-24T01:27:48.942Z,17.49
2022-12-24T01:28:18.967Z,17.46
2022-12-24T01:28:48.952Z,17.46
2022-12-24T01:29:18.964Z,17.60
2022-12-24T01:29:48.958Z,17.54
2022-12-24T01:30:18.992Z,17.48
2022-12-24T01:30:49.003Z,17.54
2022-12-24T01:31:19.056Z,17.57
2022-12-24T01:31:48.979Z,17.59
2022-12-24T01:32:19.010Z,17.52
2022-12-24T01:32:49.000Z,17.46
2022-12-24T01:33:27.810Z,17.46
2022-12-24T01:33:49.006Z,17.56
2022-12-24T01:34:19.035Z,17.54
2022-12-24T01:34:49.026Z,17.60
2022-12-24T01:35:19.026Z,17.54
2022-12-24T01:35:49.021Z,17.57
2022-12-24T01:36:19.047Z,17.57
2022-12-24T01:36:57.361Z,17.60
2022-12-24T01:37:19.049Z,17.51
2022-12-24T01:37:49.039Z,17.49
2022-12-24T01:38:19.049Z,17.57
2022-12-24T01:38:57.299Z,17.51
2022-12-24T01:39:19.060Z,17.51
2022-12-24T01:39:49.062Z,17.49
2022-12-24T01:40:19.078Z,17.59
2022-12-24T01:40:49.102Z,17.64
2022-12-24T01:41:19.083Z,17.60
2022-12-24T01:41:49.074Z,17.48
2022-12-24T01:42:19.086Z,17.63
2022-12-24T01:42:49.087Z,17.51
2022-12-24T01:43:19.103Z,17.64
2022-12-24T01:43:49.094Z,17.54
2022-12-24T01:44:19.122Z,17.54
2022-12-24T01:44:49.106Z,17.57
2022-12-24T01:45:19.113Z,17.60
2022-12-24T01:45:49.161Z,17.48
2022-12-24T01:46:19.210Z,17.56
2022-12-24T01:46:49.174Z,17.51
2022-12-24T01:47:19.138Z,17.49
2022-12-24T01:47:49.129Z,17.59
2022-12-24T01:48:19.158Z,17.54
2022-12-24T01:48:49.142Z,17.60
2022-12-24T01:49:19.169Z,17.54
2022-12-24T01:49:49.145Z,17.60
2022-12-24T01:50:19.165Z,17.48
2022-12-24T01:50:49.172Z,17.57
2022-12-24T01:51:19.164Z,17.57
2022-12-24T01:51:49.178Z,17.54
2022-12-24T01:52:19.201Z,17.49
2022-12-24T01:52:49.194Z,17.57
2022-12-24T01:53:19.191Z,17.56
2022-12-24T01:53:49.193Z,17.49
2022-12-24T01:54:19.188Z,17.60
2022-12-24T01:54:49.236Z,17.60
2022-12-24T01:55:19.194Z,17.56
2022-12-24T01:55:49.216Z,17.57
2022-12-24T01:56:19.224Z,17.52
2022-12-24T01:56:49.285Z,17.60
2022-12-24T01:57:19.223Z,17.63
2022-12-24T01:57:49.245Z,17.48
2022-12-24T01:58:19.226Z,17.54
2022-12-24T01:58:57.839Z,17.59
2022-12-24T01:59:19.229Z,17.56
2022-12-24T01:59:49.280Z,17.46
2022-12-24T02:00:19.230Z,17.54
2022-12-24T02:00:49.241Z,17.49
2022-12-24T02:01:19.369Z,17.49
2022-12-24T02:01:49.383Z,17.60
2022-12-24T02:02:19.504Z,17.54
2022-12-24T02:02:49.492Z,17.51
2022-12-24T02:03:19.278Z,17.48
2022-12-24T02:03:49.420Z,17.51
2022-12-24T02:04:19.286Z,17.51
2022-12-24T02:04:49.287Z,17.51
2022-12-24T02:05:19.278Z,17.48
2022-12-24T02:05:49.298Z,17.44
2022-12-24T02:06:19.285Z,17.49
2022-12-24T02:06:49.309Z,17.52
2022-12-24T02:07:19.296Z,17.52
2022-12-24T02:07:49.335Z,17.49
2022-12-24T02:08:19.300Z,17.51
2022-12-24T02:08:49.316Z,17.52
2022-12-24T02:09:19.320Z,17.52
2022-12-24T02:09:49.315Z,17.49
2022-12-24T02:10:19.318Z,17.48
2022-12-24T02:10:49.323Z,17.39
2022-12-24T02:11:19.313Z,17.44
2022-12-24T02:11:49.341Z,17.54
2022-12-24T02:12:19.343Z,17.46
2022-12-24T02:12:49.340Z,17.41
2022-12-24T02:13:19.339Z,17.44
2022-12-24T02:13:49.349Z,17.49
2022-12-24T02:14:19.359Z,17.45
2022-12-24T02:14:49.357Z,17.54
2022-12-24T02:15:19.350Z,17.45
2022-12-24T02:15:49.411Z,17.42
2022-12-24T02:16:19.432Z,17.52
2022-12-24T02:16:49.384Z,17.46
2022-12-24T02:17:19.358Z,17.51
2022-12-24T02:17:49.375Z,17.42
2022-12-24T02:18:19.374Z,17.48
2022-12-24T02:18:49.373Z,17.51
2022-12-24T02:19:19.380Z,17.46
2022-12-24T02:19:49.384Z,17.52
2022-12-24T02:20:19.395Z,17.44
2022-12-24T02:20:49.394Z,17.42
2022-12-24T02:21:19.419Z,17.46
2022-12-24T02:21:49.403Z,17.45
2022-12-24T02:22:19.395Z,17.48
2022-12-24T02:22:49.406Z,17.49
2022-12-24T02:23:19.423Z,17.44
2022-12-24T02:23:49.415Z,17.42
2022-12-24T02:24:19.411Z,17.41
2022-12-24T02:24:49.423Z,17.48
2022-12-24T02:25:19.446Z,17.42
2022-12-24T02:25:49.435Z,17.42
2022-12-24T02:26:19.439Z,17.46
2022-12-24T02:26:49.450Z,17.44
2022-12-24T02:27:19.455Z,17.41
2022-12-24T02:27:49.457Z,17.42
2022-12-24T02:28:19.481Z,17.41
2022-12-24T02:28:49.472Z,17.57
2022-12-24T02:29:19.490Z,17.44
2022-12-24T02:29:49.483Z,17.39
2022-12-24T02:30:19.484Z,17.38
2022-12-24T02:30:49.540Z,17.45
2022-12-24T02:31:19.582Z,17.44
2022-12-24T02:31:49.542Z,17.44
2022-12-24T02:32:19.503Z,17.44
2022-12-24T02:32:49.548Z,17.41
2022-12-24T02:33:19.520Z,17.44
2022-12-24T02:33:49.536Z,17.44
2022-12-24T02:34:19.533Z,17.42
2022-12-24T02:34:49.578Z,17.41
2022-12-24T02:35:19.554Z,17.44
2022-12-24T02:35:49.595Z,17.44
2022-12-24T02:36:19.557Z,17.52
2022-12-24T02:36:49.620Z,17.39
2022-12-24T02:37:19.587Z,17.39
2022-12-24T02:37:49.610Z,17.44
2022-12-24T02:38:19.603Z,17.39
2022-12-24T02:38:49.640Z,17.45
2022-12-24T02:39:19.599Z,17.52
2022-12-24T02:39:49.613Z,17.57
2022-12-24T02:40:19.612Z,17.42
2022-12-24T02:40:49.626Z,17.46
2022-12-24T02:41:19.622Z,17.48
2022-12-24T02:41:49.639Z,17.48
2022-12-24T02:42:19.635Z,17.46
2022-12-24T02:42:49.667Z,17.44
2022-12-24T02:43:19.653Z,17.44
2022-12-24T02:43:49.685Z,17.46
2022-12-24T02:44:19.664Z,17.49
2022-12-24T02:44:49.680Z,17.45
2022-12-24T02:45:19.675Z,17.46
2022-12-24T02:45:55.269Z,17.41
2022-12-24T02:46:20.719Z,17.51
2022-12-24T02:46:49.778Z,17.48
2022-12-24T02:47:19.704Z,17.49
2022-12-24T02:47:49.686Z,17.46
2022-12-24T02:48:19.717Z,17.46
2022-12-24T02:48:49.701Z,17.51
2022-12-24T02:49:19.706Z,17.57
2022-12-24T02:49:49.722Z,17.44
2022-12-24T02:50:19.712Z,17.49
2022-12-24T02:50:49.716Z,17.48
2022-12-24T02:51:19.719Z,17.56
2022-12-24T02:51:49.732Z,17.48
2022-12-24T02:52:19.743Z,17.51
2022-12-24T02:52:49.776Z,17.51
2022-12-24T02:53:19.737Z,17.48
2022-12-24T02:53:49.743Z,17.52
2022-12-24T02:54:19.768Z,17.48
2022-12-24T02:54:49.756Z,17.45
2022-12-24T02:55:19.755Z,17.46
2022-12-24T02:55:49.783Z,17.56
2022-12-24T02:56:19.775Z,17.51
2022-12-24T02:56:49.783Z,17.54
2022-12-24T02:57:19.806Z,17.48
2022-12-24T02:57:49.809Z,17.46
2022-12-24T02:58:19.802Z,17.45
2022-12-24T02:58:49.814Z,17.44
2022-12-24T02:59:19.814Z,17.48
2022-12-24T02:59:49.822Z,17.46
2022-12-24T03:00:19.838Z,17.46
2022-12-24T03:00:49.914Z,17.52
2022-12-24T03:01:19.962Z,17.48
2022-12-24T03:01:49.984Z,17.42
2022-12-24T03:02:20.031Z,17.44
2022-12-24T03:02:49.953Z,17.46
2022-12-24T03:03:19.851Z,17.45
2022-12-24T03:03:49.877Z,17.44
2022-12-24T03:04:19.914Z,17.41
2022-12-24T03:04:49.898Z,17.41
2022-12-24T03:05:19.892Z,17.44
2022-12-24T03:05:49.892Z,17.36
2022-12-24T03:06:19.923Z,17.39
2022-12-24T03:06:49.911Z,17.39
2022-12-24T03:07:19.905Z,17.45
2022-12-24T03:07:49.920Z,17.44
2022-12-24T03:08:19.938Z,17.39
2022-12-24T03:08:49.926Z,17.42
2022-12-24T03:09:19.928Z,17.42
2022-12-24T03:09:50.019Z,17.48
2022-12-24T03:10:19.935Z,17.44
2022-12-24T03:10:49.957Z,17.48
2022-12-24T03:11:19.953Z,17.45
2022-12-24T03:11:49.961Z,17.44
2022-12-24T03:12:19.963Z,17.39
2022-12-24T03:12:50.017Z,17.36
2022-12-24T03:13:19.994Z,17.42
2022-12-24T03:13:49.992Z,17.39
2022-12-24T03:14:19.988Z,17.39
2022-12-24T03:14:50.004Z,17.41
2022-12-24T03:15:20.021Z,17.39
2022-12-24T03:15:50.051Z,17.42
2022-12-24T03:16:20.049Z,17.41
2022-12-24T03:16:50.120Z,17.44
2022-12-24T03:17:20.028Z,17.45
2022-12-24T03:17:50.050Z,17.31
2022-12-24T03:18:20.075Z,17.30
2022-12-24T03:18:50.048Z,17.30
2022-12-24T03:19:20.045Z,17.41
2022-12-24T03:19:50.054Z,17.31
2022-12-24T03:20:20.077Z,17.38
2022-12-24T03:20:50.070Z,17.39
2022-12-24T03:21:20.068Z,17.48
2022-12-24T03:21:50.080Z,17.30
2022-12-24T03:22:20.068Z,17.46
2022-12-24T03:22:50.078Z,17.34
2022-12-24T03:23:20.103Z,17.33
2022-12-24T03:23:50.093Z,17.30
2022-12-24T03:24:20.093Z,17.45
2022-12-24T03:24:50.110Z,17.36
2022-12-24T03:25:20.124Z,17.46
2022-12-24T03:25:50.119Z,17.31
2022-12-24T03:26:20.119Z,17.42
2022-12-24T03:26:50.172Z,17.42
2022-12-24T03:27:20.125Z,17.36
2022-12-24T03:27:50.179Z,17.33
2022-12-24T03:28:20.137Z,17.30
2022-12-24T03:28:50.167Z,17.34
2022-12-24T03:29:20.150Z,17.30
2022-12-24T03:29:50.193Z,17.36
2022-12-24T03:30:20.165Z,17.29
2022-12-24T03:30:50.191Z,17.44
2022-12-24T03:31:20.307Z,17.44
2022-12-24T03:31:50.327Z,17.39
2022-12-24T03:32:20.211Z,17.42
2022-12-24T03:32:50.245Z,17.48
2022-12-24T03:33:20.205Z,17.39
2022-12-24T03:33:50.244Z,17.39
2022-12-24T03:34:20.224Z,17.38
2022-12-24T03:34:50.236Z,17.41
2022-12-24T03:35:20.238Z,17.34
2022-12-24T03:35:50.267Z,17.33
2022-12-24T03:36:20.270Z,17.38
2022-12-24T03:36:50.260Z,17.36
2022-12-24T03:37:20.263Z,17.31
2022-12-24T03:37:50.313Z,17.41
2022-12-24T03:38:20.280Z,17.39
2022-12-24T03:38:50.287Z,17.34
2022-12-24T03:39:20.298Z,17.36
2022-12-24T03:39:50.297Z,17.44
2022-12-24T03:40:20.302Z,17.38
2022-12-24T03:40:50.326Z,17.34
2022-12-24T03:41:20.300Z,17.41
2022-12-24T03:41:50.327Z,17.36
2022-12-24T03:42:20.309Z,17.42
2022-12-24T03:42:50.321Z,17.41
2022-12-24T03:43:20.324Z,17.39
2022-12-24T03:43:50.327Z,17.45
2022-12-24T03:44:20.354Z,17.44
2022-12-24T03:44:50.337Z,17.36
2022-12-24T03:45:20.360Z,17.41
2022-12-24T03:45:50.394Z,17.41
2022-12-24T03:46:20.391Z,17.34
2022-12-24T03:46:50.347Z,17.39
2022-12-24T03:47:20.357Z,17.48
2022-12-24T03:47:50.370Z,17.41
2022-12-24T03:48:20.347Z,17.41
2022-12-24T03:48:50.364Z,17.46
2022-12-24T03:49:20.373Z,17.34
2022-12-24T03:49:50.376Z,17.48
2022-12-24T03:50:20.361Z,17.44
2022-12-24T03:50:50.385Z,17.42
2022-12-24T03:51:20.376Z,17.44
2022-12-24T03:51:50.386Z,17.41
2022-12-24T03:52:20.416Z,17.46
2022-12-24T03:52:50.381Z,17.45
2022-12-24T03:53:20.394Z,17.46
2022-12-24T03:53:50.389Z,17.45
2022-12-24T03:54:20.404Z,17.48
2022-12-24T03:54:50.397Z,17.41
2022-12-24T03:55:20.407Z,17.49
2022-12-24T03:55:50.421Z,17.45
2022-12-24T03:56:20.422Z,17.49
2022-12-24T03:56:50.424Z,17.34
2022-12-24T03:57:20.421Z,17.46
2022-12-24T03:57:50.423Z,17.42
2022-12-24T03:58:20.445Z,17.45
2022-12-24T03:58:50.423Z,17.45
2022-12-24T03:59:20.447Z,17.38
2022-12-24T03:59:50.419Z,17.42
2022-12-24T04:00:20.434Z,17.46
2022-12-24T04:00:50.493Z,17.42
2022-12-24T04:01:20.617Z,17.46
2022-12-24T04:01:50.739Z,17.46
2022-12-24T04:02:20.571Z,17.33
2022-12-24T04:02:50.644Z,17.36
2022-12-24T04:03:20.584Z,17.38
2022-12-24T04:03:50.463Z,17.33
2022-12-24T04:04:20.518Z,17.30
2022-12-24T04:04:50.477Z,17.38
2022-12-24T04:05:20.490Z,17.41
2022-12-24T04:05:50.506Z,17.44
2022-12-24T04:06:20.518Z,17.30
2022-12-24T04:06:50.507Z,17.38
2022-12-24T04:07:20.522Z,17.33
2022-12-24T04:07:50.524Z,17.38
2022-12-24T04:08:20.547Z,17.49
2022-12-24T04:08:50.540Z,17.33
2022-12-24T04:09:20.544Z,17.49
2022-12-24T04:09:50.540Z,17.29
2022-12-24T04:10:20.570Z,17.34
2022-12-24T04:10:50.566Z,17.36
2022-12-24T04:11:20.579Z,17.30
2022-12-24T04:11:50.588Z,17.34
2022-12-24T04:12:20.574Z,17.44
2022-12-24T04:12:50.566Z,17.39
2022-12-24T04:13:20.580Z,17.31
2022-12-24T04:13:50.574Z,17.33
2022-12-24T04:14:20.588Z,17.30
2022-12-24T04:14:50.607Z,17.30
2022-12-24T04:15:20.628Z,17.38
2022-12-24T04:15:50.599Z,17.39
2022-12-24T04:16:20.717Z,17.31
2022-12-24T04:16:50.682Z,17.45
2022-12-24T04:17:20.630Z,17.48
2022-12-24T04:17:50.630Z,17.33
2022-12-24T04:18:20.642Z,17.30
2022-12-24T04:18:50.635Z,17.29
2022-12-24T04:19:20.649Z,17.31
2022-12-24T04:19:50.651Z,17.33
2022-12-24T04:20:20.699Z,17.31
2022-12-24T04:20:50.659Z,17.31
2022-12-24T04:21:20.687Z,17.33
2022-12-24T04:21:50.690Z,17.34
2022-12-24T04:22:20.687Z,17.33
2022-12-24T04:22:50.700Z,17.48
2022-12-24T04:23:20.696Z,17.33
2022-12-24T04:23:50.699Z,17.33
2022-12-24T04:24:20.714Z,17.34
2022-12-24T04:24:50.708Z,17.39
2022-12-24T04:25:20.717Z,17.33
2022-12-24T04:25:50.722Z,17.46
2022-12-24T04:26:20.767Z,17.49
2022-12-24T04:26:50.730Z,17.34
2022-12-24T04:27:25.213Z,17.34
2022-12-24T04:27:51.741Z,17.46
2022-12-24T04:28:20.753Z,17.33
2022-12-24T04:28:50.753Z,17.33
2022-12-24T04:29:20.761Z,17.44
2022-12-24T04:29:50.785Z,17.34
2022-12-24T04:30:20.785Z,17.38
2022-12-24T04:30:50.772Z,17.46
2022-12-24T04:31:20.900Z,17.38
2022-12-24T04:31:50.865Z,17.31
2022-12-24T04:32:20.845Z,17.42
2022-12-24T04:32:50.801Z,17.51
2022-12-24T04:33:20.847Z,17.33
2022-12-24T04:33:50.813Z,17.48
2022-12-24T04:34:20.831Z,17.31
2022-12-24T04:34:50.844Z,17.33
2022-12-24T04:35:20.850Z,17.44
2022-12-24T04:35:50.846Z,17.38
2022-12-24T04:36:20.865Z,17.30
2022-12-24T04:36:50.880Z,17.34
2022-12-24T04:37:20.907Z,17.34
2022-12-24T04:37:50.886Z,17.34
2022-12-24T04:38:20.902Z,17.36
2022-12-24T04:38:50.894Z,17.39
2022-12-24T04:39:20.939Z,17.36
2022-12-24T04:39:50.911Z,17.34
2022-12-24T04:40:20.917Z,17.34
2022-12-24T04:40:50.926Z,17.34
2022-12-24T04:41:24.314Z,17.42
2022-12-24T04:41:50.949Z,17.29
2022-12-24T04:42:20.947Z,17.30
2022-12-24T04:42:50.998Z,17.39
2022-12-24T04:43:20.959Z,17.41
2022-12-24T04:43:50.966Z,17.44
2022-12-24T04:44:20.976Z,17.39
2022-12-24T04:44:50.965Z,17.33
2022-12-24T04:45:20.984Z,17.49
2022-12-24T04:45:51.071Z,17.38
2022-12-24T04:46:21.083Z,17.34
2022-12-24T04:46:51.033Z,17.31
2022-12-24T04:47:21.011Z,17.39
2022-12-24T04:47:51.014Z,17.36
2022-12-24T04:48:21.027Z,17.34
2022-12-24T04:48:51.075Z,17.33
2022-12-24T04:49:21.036Z,17.39
2022-12-24T04:49:51.070Z,17.39
2022-12-24T04:50:21.069Z,17.34
2022-12-24T04:50:51.047Z,17.31
2022-12-24T04:51:21.065Z,17.31
2022-12-24T04:51:51.068Z,17.44
2022-12-24T04:52:21.084Z,17.39
2022-12-24T04:52:51.085Z,17.36
2022-12-24T04:53:21.100Z,17.33
2022-12-24T04:53:51.114Z,17.34
2022-12-24T04:54:21.132Z,17.36
2022-12-24T04:54:51.111Z,17.34
2022-12-24T04:55:21.132Z,17.48
2022-12-24T04:55:51.122Z,17.33
2022-12-24T04:56:21.144Z,17.36
2022-12-24T04:56:51.141Z,17.33
2022-12-24T04:57:21.157Z,17.33
2022-12-24T04:57:53.131Z,17.49
2022-12-24T04:58:21.183Z,17.45
2022-12-24T04:58:51.149Z,17.34
2022-12-24T04:59:21.185Z,17.34
2022-12-24T04:59:51.159Z,17.38
2022-12-24T05:00:21.168Z,17.33
2022-12-24T05:00:51.191Z,17.33
2022-12-24T05:01:21.384Z,17.48
2022-12-24T05:01:51.323Z,17.34
2022-12-24T05:02:21.491Z,17.36
2022-12-24T05:02:51.313Z,17.48
2022-12-24T05:03:21.301Z,17.30
2022-12-24T05:03:51.232Z,17.33
2022-12-24T05:04:21.229Z,17.46
2022-12-24T05:04:51.230Z,17.48
2022-12-24T05:05:21.238Z,17.34
2022-12-24T05:05:55.146Z,17.34
2022-12-24T05:06:22.257Z,17.34
2022-12-24T05:06:51.252Z,17.30
2022-12-24T05:07:21.274Z,17.30
2022-12-24T05:07:51.269Z,17.33
2022-12-24T05:08:21.306Z,17.48
2022-12-24T05:08:51.280Z,17.42
2022-12-24T05:09:21.310Z,17.31
2022-12-24T05:09:51.301Z,17.30
2022-12-24T05:10:21.321Z,17.29
2022-12-24T05:10:51.312Z,17.38
2022-12-24T05:11:21.349Z,17.36
2022-12-24T05:11:51.343Z,17.42
2022-12-24T05:12:21.355Z,17.42
2022-12-24T05:12:51.351Z,17.33
2022-12-24T05:13:21.366Z,17.49
2022-12-24T05:13:51.383Z,17.44
2022-12-24T05:14:21.370Z,17.46
2022-12-24T05:14:51.369Z,17.46
2022-12-24T05:15:21.429Z,17.30
2022-12-24T05:15:51.390Z,17.49
2022-12-24T05:16:21.652Z,17.41
2022-12-24T05:16:51.457Z,17.45
2022-12-24T05:17:21.430Z,17.42
2022-12-24T05:17:51.439Z,17.38
2022-12-24T05:18:21.434Z,17.31
2022-12-24T05:18:51.447Z,17.33
2022-12-24T05:19:21.477Z,17.38
2022-12-24T05:19:51.453Z,17.45
2022-12-24T05:20:21.517Z,17.34
2022-12-24T05:20:51.472Z,17.31
2022-12-24T05:21:21.651Z,17.39
2022-12-24T05:21:51.490Z,17.41
2022-12-24T05:22:21.507Z,17.36
2022-12-24T05:22:51.521Z,17.46
2022-12-24T05:23:21.560Z,17.45
2022-12-24T05:23:51.522Z,17.46
2022-12-24T05:24:21.540Z,17.42
2022-12-24T05:24:51.548Z,17.42
2022-12-24T05:25:21.601Z,17.36
2022-12-24T05:25:51.538Z,17.33
2022-12-24T05:26:21.560Z,17.42
2022-12-24T05:26:51.513Z,17.31
2022-12-24T05:27:21.557Z,17.36
2022-12-24T05:27:51.709Z,17.27
2022-12-24T05:28:21.533Z,17.31
2022-12-24T05:28:51.557Z,17.46
2022-12-24T05:29:21.565Z,17.39
2022-12-24T05:29:51.557Z,17.36
2022-12-24T05:30:21.552Z,17.48
2022-12-24T05:30:51.618Z,17.46
2022-12-24T05:31:21.602Z,17.39
2022-12-24T05:31:51.569Z,17.33
2022-12-24T05:32:21.597Z,17.33
2022-12-24T05:32:51.580Z,17.48
2022-12-24T05:33:21.587Z,17.31
2022-12-24T05:33:51.589Z,17.34
2022-12-24T05:34:21.603Z,17.30
2022-12-24T05:34:51.593Z,17.34
2022-12-24T05:35:21.597Z,17.33
2022-12-24T05:35:51.612Z,17.45
2022-12-24T05:36:21.641Z,17.31
2022-12-24T05:36:51.611Z,17.38
2022-12-24T05:37:21.615Z,17.30
2022-12-24T05:37:51.620Z,17.41
2022-12-24T05:38:21.646Z,17.44
2022-12-24T05:38:51.652Z,17.33
2022-12-24T05:39:21.655Z,17.33
2022-12-24T05:39:51.646Z,17.36
2022-12-24T05:40:21.667Z,17.49
2022-12-24T05:40:51.654Z,17.33
2022-12-24T05:41:21.686Z,17.34
2022-12-24T05:41:51.691Z,17.38
2022-12-24T05:42:21.693Z,17.49
2022-12-24T05:42:51.675Z,17.33
2022-12-24T05:43:21.688Z,17.36
2022-12-24T05:43:51.686Z,17.39
2022-12-24T05:44:21.737Z,17.34
2022-12-24T05:44:51.719Z,17.33
2022-12-24T05:45:21.707Z,17.36
2022-12-24T05:45:51.726Z,17.31
2022-12-24T05:46:21.861Z,17.38
2022-12-24T05:46:51.733Z,17.33
2022-12-24T05:47:21.737Z,17.29
2022-12-24T05:47:51.738Z,17.30
2022-12-24T05:48:21.754Z,17.44
2022-12-24T05:48:51.750Z,17.31
2022-12-24T05:49:21.765Z,17.36
2022-12-24T05:49:51.788Z,17.34
2022-12-24T05:50:21.775Z,17.39
2022-12-24T05:50:51.780Z,17.48
2022-12-24T05:51:21.816Z,17.34
2022-12-24T05:51:51.779Z,17.41
2022-12-24T05:52:21.810Z,17.36
2022-12-24T05:52:51.795Z,17.39
2022-12-24T05:53:21.814Z,17.34
2022-12-24T05:53:51.830Z,17.30
2022-12-24T05:54:21.816Z,17.38
2022-12-24T05:54:51.840Z,17.38
2022-12-24T05:55:21.859Z,17.39
2022-12-24T05:55:51.842Z,17.34
2022-12-24T05:56:21.841Z,17.33
2022-12-24T05:56:51.847Z,17.30
2022-12-24T05:57:21.879Z,17.27
2022-12-24T05:57:51.861Z,17.36
2022-12-24T05:58:21.898Z,17.31
2022-12-24T05:58:51.869Z,17.36
2022-12-24T05:59:21.905Z,17.44
2022-12-24T05:59:51.894Z,17.36
2022-12-24T06:00:21.921Z,17.33
2022-12-24T06:00:51.899Z,17.38
2022-12-24T06:01:22.051Z,17.34
2022-12-24T06:01:52.085Z,17.33
2022-12-24T06:02:21.962Z,17.42
2022-12-24T06:02:52.017Z,17.34
2022-12-24T06:03:21.945Z,17.44
2022-12-24T06:03:51.996Z,17.27
2022-12-24T06:04:28.337Z,17.36
2022-12-24T06:04:53.043Z,17.31
2022-12-24T06:05:21.988Z,17.39
2022-12-24T06:05:51.996Z,17.31
2022-12-24T06:06:22.008Z,17.33
2022-12-24T06:06:52.015Z,17.36
2022-12-24T06:07:22.010Z,17.34
2022-12-24T06:07:52.069Z,17.42
2022-12-24T06:08:22.037Z,17.34
2022-12-24T06:08:52.072Z,17.42
2022-12-24T06:09:22.044Z,17.38
2022-12-24T06:09:52.074Z,17.42
2022-12-24T06:10:22.108Z,17.36
2022-12-24T06:10:52.082Z,17.27
2022-12-24T06:11:22.088Z,17.36
2022-12-24T06:11:52.115Z,17.29
2022-12-24T06:12:22.095Z,17.34
2022-12-24T06:12:52.109Z,17.39
2022-12-24T06:13:22.102Z,17.39
2022-12-24T06:13:52.121Z,17.29
2022-12-24T06:14:22.140Z,17.41
2022-12-24T06:14:52.156Z,17.30
2022-12-24T06:15:24.062Z,17.29
2022-12-24T06:15:52.256Z,17.38
2022-12-24T06:16:22.269Z,17.39
2022-12-24T06:16:52.160Z,17.36
2022-12-24T06:17:22.170Z,17.27
2022-12-24T06:17:52.172Z,17.42
2022-12-24T06:18:22.168Z,17.39
2022-12-24T06:18:52.190Z,17.31
2022-12-24T06:19:22.180Z,17.33
2022-12-24T06:19:52.200Z,17.41
2022-12-24T06:20:22.183Z,17.36
2022-12-24T06:20:52.240Z,17.30
2022-12-24T06:21:22.205Z,17.31
2022-12-24T06:21:52.215Z,17.38
2022-12-24T06:22:22.214Z,17.44
2022-12-24T06:22:52.231Z,17.39
2022-12-24T06:23:22.222Z,17.34
2022-12-24T06:23:52.292Z,17.39
2022-12-24T06:24:22.240Z,17.42
2022-12-24T06:24:52.253Z,17.38
2022-12-24T06:25:22.245Z,17.36
2022-12-24T06:25:52.273Z,17.33
2022-12-24T06:26:22.278Z,17.36
2022-12-24T06:26:52.291Z,17.30
2022-12-24T06:27:22.272Z,17.30
2022-12-24T06:27:52.281Z,17.33
2022-12-24T06:28:22.279Z,17.39